首页
METAR-TAF:

METAR-TAF

机场 :

阿比让, 科特迪瓦

阿必尚國際機場

纬度: 05-15N, 经度: 003-56W, 海拔: 7米

当前天气观测

该预报发布于32分钟前的14:00 UTC
风速11节,风向南转西南
温度 31°C
湿度 66%
气压 1008 hPa
能見度: 8000
少量云层高于1200英尺

METAR: DIAP 221400Z 21011KT 8000 FEW012 31/24 Q1008 NOSIG

时间: 14:32 (14:32 UTC)

预报

该预报发布于3小时和32分钟前的11:00 UTC
预报有效从22日的 12点(UTC)到 23日的 18点(UTC)
风速10节,风向西
能見度: 8000
少量云层高于1200英尺
几率 30% :
短暂存在
从 22日的 16点(UTC)到 22日的 21点(UTC)
多云层高于1200英尺
少量云层高于2000英尺, 积雨云.
雷暴
成为
从 22日的 22点(UTC)到 22日的 23点(UTC)
风速2节,风向多变
几率 40% :
短暂存在
从 23日的 04点(UTC)到 23日的 08点(UTC)
能見度: 3500
轻雾
短暂存在
从 23日的 06点(UTC)到 23日的 11点(UTC)
多云层高于1000英尺
多云层高于2000英尺
成为
从 23日的 11点(UTC)到 23日的 12点(UTC)
风速10节,风向西转西南

TAF: DIAP 221100Z 2212/2318 27010KT 8000 FEW012 PROB30 TEMPO 2216/2221 TS BKN012 FEW020CB BECMG 2222/2223 VRB02KT PROB40 TEMPO 2304/2308 3500 BR TEMPO 2306/2311 BKN010 BKN020 BECMG 2311/2312 24010KT

超过4000个机场的气象观测和天气预报(METAR&TAF报告)。

可查询的气象台以黄色和红色小点在地图上表示。

将鼠标移到小点上方,可查看气象台名称。

然后点击查看天气观测和预报。

如需切换地图:点击带黑十字的绿色按钮放大地图;点击带横线的绿色按钮缩小地图;或者点击绿色箭头查看邻近地区的地图。


METAR-TAF: